Time;durP1;ratioP1;P1;durP2;ratioP2;P2;SDS_P1;SDS_P2;PMS_P1;PMS_P2;Temp;Humidity;BMP_temperature;BMP_pressure;BME280_temperature;BME280_humidity;BME280_pressure;Samples;Min_cycle;Max_cycle;Signal;HPM_P1;HPM_P2
2023/12/12 00:01:23;;;;;;;12.03;3.63;;;9.50;99.90;;;;;;5031369;28;20446;-57
2023/12/12 00:03:50;;;;;;;9.70;3.73;;;9.50;99.90;;;;;;5031695;28;20494;-54
2023/12/12 00:06:17;;;;;;;6.17;3.23;;;9.50;99.90;;;;;;5031519;28;20466;-59
2023/12/12 00:08:44;;;;;;;8.10;4.07;;;9.50;99.90;;;;;;5031658;28;20540;-54
2023/12/12 00:11:10;;;;;;;7.37;4.10;;;9.50;99.90;;;;;;5031801;28;20457;-54
2023/12/12 00:13:37;;;;;;;9.50;5.53;;;9.40;99.90;;;;;;5031552;28;20450;-57
2023/12/12 00:16:06;;;;;;;8.20;3.75;;;9.40;99.90;;;;;;5031104;28;20481;-55
2023/12/12 00:18:35;;;;;;;7.50;4.30;;;9.30;99.90;;;;;;5031485;28;20209;-56
2023/12/12 00:21:02;;;;;;;10.77;3.63;;;9.30;99.90;;;;;;5031530;28;20815;-58
2023/12/12 00:23:29;;;;;;;9.43;3.53;;;9.30;99.90;;;;;;5031552;28;20533;-58
2023/12/12 00:25:56;;;;;;;4.75;3.60;;;9.20;99.90;;;;;;5030209;28;20465;-55
2023/12/12 00:28:23;;;;;;;11.40;3.90;;;9.20;99.90;;;;;;5030792;28;20207;-58
2023/12/12 00:30:50;;;;;;;7.57;2.60;;;9.20;99.90;;;;;;5030701;28;20880;-58
2023/12/12 00:33:17;;;;;;;11.57;4.70;;;9.10;99.90;;;;;;5031295;28;20536;-54
2023/12/12 00:35:45;;;;;;;13.80;3.80;;;9.10;99.90;;;;;;5031014;28;20472;-59
2023/12/12 00:38:12;;;;;;;9.67;3.17;;;9.10;99.90;;;;;;5052231;22;20505;-57
2023/12/12 00:40:39;;;;;;;13.93;3.70;;;9.10;99.90;;;;;;5030532;28;20449;-57
2023/12/12 00:43:05;;;;;;;9.63;3.73;;;9.10;99.90;;;;;;5031119;28;20998;-57
2023/12/12 00:45:32;;;;;;;4.70;2.90;;;9.10;99.90;;;;;;5031477;28;20481;-57
2023/12/12 00:47:59;;;;;;;8.80;4.13;;;9.10;99.90;;;;;;5031259;28;20810;-56
2023/12/12 00:50:26;;;;;;;5.40;2.40;;;9.10;99.90;;;;;;5031725;28;20544;-57
2023/12/12 00:52:54;;;;;;;6.30;2.97;;;9.00;99.90;;;;;;5031505;28;21047;-57
2023/12/12 00:55:21;;;;;;;7.30;2.95;;;8.90;99.90;;;;;;5031481;28;20460;-57
2023/12/12 00:57:48;;;;;;;9.10;3.57;;;8.90;99.90;;;;;;5031113;28;20606;-58
2023/12/12 01:00:16;;;;;;;4.88;2.50;;;8.80;99.90;;;;;;5031494;28;20549;-56
2023/12/12 01:02:43;;;;;;;6.33;3.30;;;8.70;99.90;;;;;;5031369;28;20210;-58
2023/12/12 01:05:10;;;;;;;8.80;3.20;;;8.70;99.90;;;;;;5044463;28;20448;-55
2023/12/12 01:07:37;;;;;;;7.03;4.13;;;8.60;99.90;;;;;;5050758;28;20471;-58
2023/12/12 01:10:06;;;;;;;3.27;2.47;;;8.50;99.90;;;;;;5050934;28;20444;-56
2023/12/12 01:12:33;;;;;;;5.80;3.78;;;8.40;99.90;;;;;;5049148;28;20480;-59
2023/12/12 01:15:00;;;;;;;4.85;2.85;;;8.40;99.90;;;;;;5049760;28;20206;-57
2023/12/12 01:17:28;;;;;;;5.93;2.20;;;8.30;99.90;;;;;;5042680;28;20317;-57
2023/12/12 01:19:55;;;;;;;8.23;3.10;;;8.20;99.90;;;;;;5029895;28;20242;-58
2023/12/12 01:22:21;;;;;;;6.00;2.85;;;8.10;99.90;;;;;;5029844;28;20215;-57
2023/12/12 01:24:48;;;;;;;5.63;3.30;;;8.10;99.90;;;;;;5029707;28;20293;-57
2023/12/12 01:27:17;;;;;;;5.13;3.30;;;8.00;99.90;;;;;;5030136;28;20218;-58
2023/12/12 01:29:44;;;;;;;7.10;3.35;;;7.90;99.90;;;;;;5031036;28;20293;-57
2023/12/12 01:32:10;;;;;;;7.13;3.05;;;7.90;99.90;;;;;;5031266;28;20230;-58
2023/12/12 01:34:37;;;;;;;6.22;2.95;;;7.80;99.90;;;;;;5031105;28;20207;-57
2023/12/12 01:37:04;;;;;;;7.22;4.20;;;7.80;99.90;;;;;;5031743;28;20330;-55
2023/12/12 01:39:31;;;;;;;8.60;2.73;;;7.70;99.90;;;;;;5034644;28;20674;-58
2023/12/12 01:41:58;;;;;;;9.85;4.18;;;7.70;99.90;;;;;;5034977;28;20451;-54
2023/12/12 01:44:26;;;;;;;6.30;3.25;;;7.60;99.90;;;;;;5034724;28;20211;-55
2023/12/12 01:46:53;;;;;;;7.30;4.00;;;7.60;99.90;;;;;;5034675;28;20290;-56
2023/12/12 01:49:20;;;;;;;6.47;2.90;;;7.60;99.90;;;;;;5034611;28;20297;-56
2023/12/12 01:51:47;;;;;;;6.70;2.65;;;7.60;99.90;;;;;;5035234;28;20685;-59
2023/12/12 01:54:17;;;;;;;6.80;3.08;;;7.50;99.90;;;;;;5046994;28;20262;-56
2023/12/12 01:56:47;;;;;;;5.90;3.08;;;7.50;99.90;;;;;;5054833;28;20293;-55
2023/12/12 01:59:14;;;;;;;5.75;2.53;;;7.50;99.90;;;;;;5054397;28;20206;-55
2023/12/12 02:01:43;;;;;;;6.72;2.95;;;7.50;99.90;;;;;;5054503;28;20642;-57
2023/12/12 02:04:10;;;;;;;7.50;2.60;;;7.40;99.90;;;;;;5054391;28;20294;-58
2023/12/12 02:06:37;;;;;;;5.03;3.10;;;7.40;99.90;;;;;;5054296;28;20314;-58
2023/12/12 02:09:05;;;;;;;7.47;3.45;;;7.40;99.90;;;;;;5054109;28;20231;-55
2023/12/12 02:11:32;;;;;;;6.40;3.13;;;7.40;99.90;;;;;;5054409;28;20210;-58
2023/12/12 02:13:59;;;;;;;8.80;3.42;;;7.40;99.90;;;;;;5034833;28;20654;-55
2023/12/12 02:16:25;;;;;;;4.68;2.33;;;7.40;99.90;;;;;;5033819;28;20303;-56
2023/12/12 02:18:53;;;;;;;9.45;3.22;;;7.40;99.90;;;;;;5033950;28;20318;-56
2023/12/12 02:21:22;;;;;;;4.97;3.90;;;7.30;99.90;;;;;;5034254;28;20673;-58
2023/12/12 02:23:48;;;;;;;4.55;3.30;;;7.30;99.90;;;;;;5034116;28;20701;-55
2023/12/12 02:26:16;;;;;;;8.43;2.35;;;7.30;99.90;;;;;;5034039;28;20305;-59
2023/12/12 02:28:43;;;;;;;15.07;3.20;;;7.30;99.90;;;;;;5033914;28;20334;-57
2023/12/12 02:31:10;;;;;;;5.15;2.38;;;7.20;99.90;;;;;;5033953;28;20294;-59
2023/12/12 02:33:37;;;;;;;6.53;2.38;;;7.20;99.90;;;;;;5033816;28;20302;-57
2023/12/12 02:36:04;;;;;;;4.25;2.90;;;7.20;99.90;;;;;;5033930;28;20217;-57
2023/12/12 02:38:33;;;;;;;7.03;3.25;;;7.10;99.90;;;;;;5033398;28;20334;-58
2023/12/12 02:40:59;;;;;;;7.57;2.50;;;7.10;99.90;;;;;;5033836;28;20294;-55
2023/12/12 02:43:26;;;;;;;10.10;5.78;;;7.00;99.90;;;;;;5033796;28;20219;-54
2023/12/12 02:45:53;;;;;;;6.10;2.60;;;6.90;99.90;;;;;;5033690;28;20294;-57
2023/12/12 02:48:20;;;;;;;9.07;3.08;;;6.90;99.90;;;;;;5045941;28;20233;-58
2023/12/12 02:50:47;;;;;;;6.18;2.78;;;6.80;99.90;;;;;;5053600;28;20301;-58
2023/12/12 02:53:13;;;;;;;5.07;2.90;;;6.70;99.90;;;;;;5053685;28;20882;-55
2023/12/12 02:55:41;;;;;;;6.07;3.03;;;6.70;99.90;;;;;;5053426;28;20293;-55
2023/12/12 02:58:08;;;;;;;4.25;2.80;;;6.60;99.90;;;;;;5052984;28;20226;-55
2023/12/12 03:00:36;;;;;;;4.53;4.22;;;6.50;99.90;;;;;;5053252;28;20260;-56
2023/12/12 03:03:02;;;;;;;9.63;4.32;;;6.40;99.90;;;;;;5053223;28;20750;-57
2023/12/12 03:05:29;;;;;;;8.00;2.92;;;6.40;99.90;;;;;;5053313;28;20217;-55
2023/12/12 03:07:56;;;;;;;8.40;3.25;;;6.30;99.90;;;;;;5052761;28;20314;-57
2023/12/12 03:10:23;;;;;;;10.43;3.30;;;6.20;99.90;;;;;;5053095;28;20218;-56
2023/12/12 03:12:51;;;;;;;9.50;2.63;;;6.20;99.90;;;;;;5053109;28;20206;-58
2023/12/12 03:15:18;;;;;;;7.82;3.25;;;6.10;99.90;;;;;;5052901;28;20736;-56
2023/12/12 03:17:45;;;;;;;4.93;2.55;;;6.00;99.90;;;;;;5052468;28;20230;-58
2023/12/12 03:20:12;;;;;;;5.22;2.97;;;5.90;99.90;;;;;;5052802;28;20216;-56
2023/12/12 03:22:39;;;;;;;5.07;2.97;;;5.90;99.90;;;;;;5053033;28;20289;-55
2023/12/12 03:25:07;;;;;;;11.48;3.20;;;5.80;99.90;;;;;;5052814;28;20301;-56
2023/12/12 03:27:34;;;;;;;6.22;2.50;;;5.70;99.90;;;;;;5052482;28;20223;-57
2023/12/12 03:30:03;;;;;;;5.40;3.00;;;5.70;99.90;;;;;;5052659;28;20214;-56
2023/12/12 03:32:29;;;;;;;5.53;3.40;;;5.60;99.90;;;;;;5052993;28;20207;-57
2023/12/12 03:34:56;;;;;;;10.85;4.70;;;5.60;99.90;;;;;;5052830;28;20593;-56
2023/12/12 03:37:23;;;;;;;6.47;3.60;;;5.50;99.90;;;;;;5052075;28;20230;-56
2023/12/12 03:39:50;;;;;;;3.05;2.75;;;5.40;99.90;;;;;;5052747;28;20302;-56
2023/12/12 03:42:17;;;;;;;4.38;3.03;;;5.40;99.90;;;;;;5052425;28;20210;-58
2023/12/12 03:44:43;;;;;;;5.70;4.88;;;5.30;99.90;;;;;;5052725;28;20202;-56
2023/12/12 03:47:12;;;;;;;5.30;3.35;;;5.30;99.90;;;;;;5052568;28;20226;-52
2023/12/12 03:49:38;;;;;;;6.47;3.92;;;5.20;99.90;;;;;;5052456;28;20210;-55
2023/12/12 03:52:06;;;;;;;5.78;2.90;;;5.20;99.90;;;;;;5052366;28;20207;-55
2023/12/12 03:54:33;;;;;;;5.03;2.60;;;5.10;99.90;;;;;;5052391;28;20301;-57
2023/12/12 03:56:59;;;;;;;9.55;4.22;;;5.10;99.90;;;;;;5052068;28;20213;-54
2023/12/12 03:59:26;;;;;;;7.03;3.60;;;5.00;99.90;;;;;;5043383;28;20226;-55
2023/12/12 04:01:53;;;;;;;13.18;3.60;;;5.00;99.90;;;;;;5032596;28;20211;-56
2023/12/12 04:04:21;;;;;;;5.55;3.05;;;5.00;99.90;;;;;;5032405;28;20223;-57
2023/12/12 04:06:48;;;;;;;4.60;2.60;;;5.00;99.90;;;;;;5032151;28;20206;-55
2023/12/12 04:09:16;;;;;;;5.65;3.22;;;4.90;99.90;;;;;;5031795;28;20301;-59
2023/12/12 04:11:43;;;;;;;4.38;2.75;;;4.90;99.90;;;;;;5032331;28;20217;-57
2023/12/12 04:14:10;;;;;;;9.13;3.60;;;4.90;99.90;;;;;;5032285;28;20217;-56
2023/12/12 04:16:36;;;;;;;3.67;3.00;;;4.90;99.90;;;;;;5031468;28;20213;-55
2023/12/12 04:19:03;;;;;;;9.63;4.32;;;4.80;99.90;;;;;;5031275;28;20230;-58
2023/12/12 04:21:32;;;;;;;9.00;3.55;;;4.80;99.90;;;;;;5031989;28;20211;-55
2023/12/12 04:23:58;;;;;;;7.68;2.80;;;4.80;99.90;;;;;;5031927;28;20681;-56
2023/12/12 04:26:29;;;;;;;3.72;2.40;;;4.80;99.90;;;;;;5032290;28;20211;-57
2023/12/12 04:28:56;;;;;;;8.48;3.40;;;4.80;99.90;;;;;;5031897;28;20693;-56
2023/12/12 04:31:23;;;;;;;9.15;3.38;;;4.80;99.90;;;;;;5031990;28;20213;-56
2023/12/12 04:33:49;;;;;;;6.57;3.75;;;4.90;99.90;;;;;;5032001;28;20206;-57
2023/12/12 04:36:16;;;;;;;12.93;3.90;;;4.90;99.90;;;;;;5031634;28;20203;-56
2023/12/12 04:38:44;;;;;;;8.45;3.78;;;4.90;99.90;;;;;;5031171;28;20232;-53
2023/12/12 04:41:11;;;;;;;4.05;2.85;;;4.90;99.90;;;;;;5031682;28;20207;-57
2023/12/12 04:43:38;;;;;;;7.57;4.65;;;5.00;99.90;;;;;;5031723;28;20587;-58
2023/12/12 04:46:05;;;;;;;8.48;2.90;;;5.10;99.90;;;;;;5031567;28;20318;-57
2023/12/12 04:48:32;;;;;;;3.42;3.13;;;5.10;99.90;;;;;;5031256;28;20237;-59
2023/12/12 04:51:00;;;;;;;6.70;3.63;;;5.10;99.90;;;;;;5030286;28;20303;-59
2023/12/12 04:53:26;;;;;;;7.72;3.03;;;5.20;99.90;;;;;;5031551;28;20210;-57
2023/12/12 04:55:55;;;;;;;7.60;4.03;;;5.20;99.90;;;;;;5031305;28;20203;-56
2023/12/12 04:58:21;;;;;;;9.55;2.55;;;5.20;99.90;;;;;;5030887;28;20983;-55
2023/12/12 05:00:48;;;;;;;8.80;3.90;;;5.30;99.90;;;;;;5031537;28;20203;-58
2023/12/12 05:03:16;;;;;;;6.80;4.18;;;5.30;99.90;;;;;;5031355;28;20215;-58
2023/12/12 05:05:44;;;;;;;6.22;2.72;;;5.30;99.90;;;;;;5031348;28;20210;-58
2023/12/12 05:08:11;;;;;;;6.38;2.85;;;5.30;99.90;;;;;;5030947;28;20223;-58
2023/12/12 05:10:38;;;;;;;4.20;2.50;;;5.30;99.90;;;;;;5031239;28;20203;-57
2023/12/12 05:13:06;;;;;;;5.88;2.90;;;5.20;99.90;;;;;;5034387;28;20583;-57
2023/12/12 05:15:33;;;;;;;4.57;2.78;;;5.20;99.90;;;;;;5035457;28;20210;-58
2023/12/12 05:18:00;;;;;;;5.75;2.28;;;5.20;99.90;;;;;;5035096;28;20231;-58
2023/12/12 05:20:27;;;;;;;4.40;3.25;;;5.20;99.90;;;;;;5035400;28;20210;-58
2023/12/12 05:22:54;;;;;;;10.27;3.28;;;5.20;99.90;;;;;;5035246;28;20209;-57
2023/12/12 05:25:21;;;;;;;4.57;2.33;;;5.10;99.90;;;;;;5035191;28;20214;-59
2023/12/12 05:27:47;;;;;;;4.70;2.45;;;5.10;99.90;;;;;;5034858;28;20234;-57
2023/12/12 05:30:17;;;;;;;4.20;2.25;;;5.00;99.90;;;;;;5035128;28;20213;-59
2023/12/12 05:32:44;;;;;;;6.05;3.13;;;5.00;99.90;;;;;;5035331;28;20229;-53
2023/12/12 05:35:11;;;;;;;6.70;4.85;;;5.00;99.90;;;;;;5035158;28;20857;-57
2023/12/12 05:37:38;;;;;;;4.32;2.72;;;4.90;99.90;;;;;;5034515;28;20246;-54
2023/12/12 05:40:06;;;;;;;4.15;3.20;;;4.90;99.90;;;;;;5035043;28;20230;-56
2023/12/12 05:42:33;;;;;;;9.90;3.33;;;4.90;99.90;;;;;;5034967;28;20648;-53
2023/12/12 05:45:00;;;;;;;5.85;2.78;;;4.80;99.90;;;;;;5053894;28;20655;-55
2023/12/12 05:47:28;;;;;;;6.53;2.63;;;4.80;99.90;;;;;;5054177;28;20229;-58
2023/12/12 05:49:55;;;;;;;9.60;2.75;;;4.70;99.90;;;;;;5054692;28;20292;-56
2023/12/12 05:52:22;;;;;;;4.03;2.00;;;4.60;99.90;;;;;;5054700;28;20314;-57
2023/12/12 05:54:49;;;;;;;7.65;3.70;;;4.60;99.90;;;;;;5054864;28;20218;-58
2023/12/12 05:57:16;;;;;;;6.82;2.63;;;4.60;99.90;;;;;;5054776;28;20234;-58
2023/12/12 05:59:42;;;;;;;7.63;3.40;;;4.50;99.90;;;;;;5054458;28;20769;-57
2023/12/12 06:02:09;;;;;;;4.55;3.42;;;4.50;99.90;;;;;;5054523;28;20213;-59
2023/12/12 06:04:39;;;;;;;6.13;3.28;;;4.50;99.90;;;;;;5054317;28;20260;-58
2023/12/12 06:07:06;;;;;;;7.93;3.40;;;4.40;99.90;;;;;;5054294;28;20234;-57
2023/12/12 06:09:33;;;;;;;8.98;2.95;;;4.40;99.90;;;;;;5054200;28;20199;-57
2023/12/12 06:12:00;;;;;;;13.07;3.80;;;4.30;99.90;;;;;;5054416;28;20220;-55
2023/12/12 06:14:27;;;;;;;12.75;2.80;;;4.30;99.90;;;;;;5054108;28;20227;-56
2023/12/12 06:16:55;;;;;;;6.60;2.72;;;4.20;99.90;;;;;;5054268;28;20210;-58
2023/12/12 06:19:23;;;;;;;5.05;2.30;;;4.10;99.90;;;;;;5053957;28;20317;-59
2023/12/12 06:21:53;;;;;;;3.67;3.10;;;4.10;99.90;;;;;;5054313;28;20276;-54
2023/12/12 06:24:20;;;;;;;6.57;3.42;;;4.10;99.90;;;;;;5054353;28;20207;-56
2023/12/12 06:26:47;;;;;;;5.93;2.92;;;4.00;99.90;;;;;;5053990;28;20305;-55
2023/12/12 06:29:14;;;;;;;8.77;3.33;;;3.90;99.90;;;;;;5054152;28;20242;-55
2023/12/12 06:31:41;;;;;;;9.93;3.85;;;3.90;99.90;;;;;;5054012;28;20268;-57
2023/12/12 06:34:10;;;;;;;5.47;3.08;;;3.90;99.90;;;;;;5054087;28;20297;-56
2023/12/12 06:36:37;;;;;;;10.43;3.17;;;3.80;99.90;;;;;;5054201;28;20616;-55
2023/12/12 06:39:05;;;;;;;4.28;3.75;;;3.70;99.90;;;;;;5053673;28;20227;-57
2023/12/12 06:41:33;;;;;;;12.05;3.80;;;3.70;99.90;;;;;;5053947;28;20301;-57
2023/12/12 06:44:00;;;;;;;4.18;3.65;;;3.70;99.90;;;;;;5054154;28;20297;-58
2023/12/12 06:46:27;;;;;;;5.70;3.30;;;3.60;99.90;;;;;;5053781;28;20238;-56
2023/12/12 06:48:54;;;;;;;8.20;3.70;;;3.60;99.90;;;;;;5053776;28;20245;-57
2023/12/12 06:51:21;;;;;;;11.18;4.30;;;3.50;99.90;;;;;;5053760;28;20297;-56
2023/12/12 06:53:48;;;;;;;4.32;3.00;;;3.50;99.90;;;;;;5053831;28;20301;-57
2023/12/12 06:56:16;;;;;;;6.20;3.58;;;3.40;99.90;;;;;;5053714;28;20297;-55
2023/12/12 06:58:43;;;;;;;6.18;3.10;;;3.40;99.90;;;;;;5053292;28;20236;-57
2023/12/12 07:01:09;;;;;;;9.75;3.00;;;3.40;99.90;;;;;;5053916;28;20619;-56
2023/12/12 07:03:36;;;;;;;7.38;3.35;;;3.40;99.90;;;;;;5053735;28;20218;-58
2023/12/12 07:06:03;;;;;;;6.03;3.05;;;3.30;99.90;;;;;;5053581;28;20669;-56
2023/12/12 07:08:30;;;;;;;6.60;3.45;;;3.30;99.90;;;;;;5052985;28;20264;-56
2023/12/12 07:10:57;;;;;;;8.90;4.53;;;3.30;99.90;;;;;;5053714;28;20221;-57
2023/12/12 07:13:25;;;;;;;4.50;3.70;;;3.30;99.90;;;;;;5053409;28;20208;-57
2023/12/12 07:15:52;;;;;;;6.55;3.22;;;3.30;99.90;;;;;;5053575;28;20229;-57
2023/12/12 07:18:19;;;;;;;9.82;3.67;;;3.30;99.90;;;;;;5052885;28;20716;-54
2023/12/12 07:20:46;;;;;;;4.35;3.45;;;3.30;99.90;;;;;;5053414;28;20218;-57
2023/12/12 07:23:13;;;;;;;5.47;4.47;;;3.30;99.90;;;;;;5053176;28;20642;-55
2023/12/12 07:25:40;;;;;;;9.73;4.53;;;3.30;99.90;;;;;;5051769;28;20194;-56
2023/12/12 07:28:06;;;;;;;12.30;4.20;;;3.40;99.90;;;;;;5052664;28;20462;-53
2023/12/12 07:30:34;;;;;;;5.40;3.33;;;3.40;99.90;;;;;;5053042;28;20281;-57
2023/12/12 07:33:01;;;;;;;5.90;3.65;;;3.30;99.90;;;;;;5053204;28;20453;-58
2023/12/12 07:35:28;;;;;;;7.60;4.20;;;3.40;99.90;;;;;;5052413;28;20206;-58
2023/12/12 07:37:54;;;;;;;6.32;3.15;;;3.30;99.90;;;;;;5052491;28;20273;-56
2023/12/12 07:40:21;;;;;;;5.10;3.97;;;3.30;99.90;;;;;;5052654;28;20252;-58
2023/12/12 07:42:48;;;;;;;5.75;3.70;;;3.40;99.90;;;;;;5052820;28;20216;-57
2023/12/12 07:45:15;;;;;;;5.68;5.10;;;3.30;99.90;;;;;;5053108;28;20216;-58
2023/12/12 07:47:43;;;;;;;8.90;4.10;;;3.30;99.90;;;;;;5052312;28;20229;-52
2023/12/12 07:50:10;;;;;;;5.28;3.63;;;3.40;99.90;;;;;;5052641;28;20205;-56
2023/12/12 07:52:37;;;;;;;8.73;3.70;;;3.30;99.90;;;;;;5052416;28;20220;-55
2023/12/12 07:55:05;;;;;;;10.60;4.22;;;3.40;99.90;;;;;;5052392;28;20245;-52
2023/12/12 07:57:32;;;;;;;6.43;3.85;;;3.30;99.90;;;;;;5051945;28;20324;-58
2023/12/12 07:59:59;;;;;;;5.18;3.42;;;3.30;99.90;;;;;;5052532;28;20720;-57
2023/12/12 08:02:26;;;;;;;5.45;3.80;;;3.30;99.90;;;;;;5052107;28;20341;-56
2023/12/12 08:04:54;;;;;;;8.57;3.88;;;3.30;99.90;;;;;;5051345;28;20210;-58
2023/12/12 08:07:22;;;;;;;7.85;3.55;;;3.30;99.90;;;;;;5052092;28;20222;-54
2023/12/12 08:09:49;;;;;;;4.03;3.65;;;3.30;99.90;;;;;;5052303;28;20643;-55
2023/12/12 08:12:16;;;;;;;8.30;4.03;;;3.30;99.90;;;;;;5052121;28;20754;-55
2023/12/12 08:14:43;;;;;;;6.05;3.67;;;3.30;99.90;;;;;;5052241;28;20206;-56
2023/12/12 08:17:10;;;;;;;3.70;3.25;;;3.20;99.90;;;;;;5051581;28;20736;-57
2023/12/12 08:19:36;;;;;;;5.03;3.65;;;3.20;99.90;;;;;;5050828;28;20234;-55
2023/12/12 08:22:05;;;;;;;4.25;3.70;;;3.20;99.90;;;;;;5051797;28;20222;-55
2023/12/12 08:24:32;;;;;;;4.22;3.40;;;3.20;99.90;;;;;;5052301;28;20209;-55
2023/12/12 08:26:58;;;;;;;6.25;3.40;;;3.30;99.90;;;;;;5051969;28;20696;-55
2023/12/12 08:29:25;;;;;;;11.38;3.88;;;3.30;99.90;;;;;;5052204;28;20297;-56
2023/12/12 08:31:52;;;;;;;5.40;4.85;;;3.30;99.90;;;;;;5052360;28;20301;-58
2023/12/12 08:34:19;;;;;;;5.65;3.50;;;3.30;99.90;;;;;;5052111;28;20301;-56
2023/12/12 08:36:46;;;;;;;7.18;4.22;;;3.30;99.90;;;;;;5051665;28;20703;-54
2023/12/12 08:39:14;;;;;;;6.53;3.88;;;3.30;99.90;;;;;;5051719;28;20230;-59
2023/12/12 08:41:41;;;;;;;5.60;3.28;;;3.40;99.90;;;;;;5051800;28;20739;-57
2023/12/12 08:44:08;;;;;;;9.52;4.22;;;3.40;99.90;;;;;;5050739;28;20210;-58
2023/12/12 08:46:36;;;;;;;6.35;4.78;;;3.50;99.90;;;;;;5049980;28;20293;-56
2023/12/12 08:49:03;;;;;;;4.07;3.38;;;3.50;99.90;;;;;;5051461;28;20226;-55
2023/12/12 08:51:30;;;;;;;7.10;4.30;;;3.60;99.90;;;;;;5050864;28;20222;-58
2023/12/12 08:53:58;;;;;;;5.45;3.97;;;3.60;99.90;;;;;;5051308;28;20214;-56
2023/12/12 08:56:26;;;;;;;4.72;4.28;;;3.60;99.90;;;;;;5051396;28;20203;-57
2023/12/12 08:58:54;;;;;;;11.00;5.28;;;3.60;99.90;;;;;;5050843;28;20235;-58
2023/12/12 09:01:22;;;;;;;5.93;4.38;;;3.60;99.90;;;;;;5051162;28;20645;-58
2023/12/12 09:03:49;;;;;;;8.32;4.30;;;3.70;99.90;;;;;;5051168;28;20242;-55
2023/12/12 09:06:15;;;;;;;6.90;5.10;;;3.70;99.90;;;;;;5073436;22;20192;-58
2023/12/12 09:08:43;;;;;;;7.47;4.60;;;3.70;99.90;;;;;;5049941;28;20206;-60
2023/12/12 09:11:10;;;;;;;7.50;4.15;;;3.70;99.90;;;;;;5051044;28;20736;-57
2023/12/12 09:13:38;;;;;;;9.90;4.47;;;3.70;99.90;;;;;;5050783;28;20683;-57
2023/12/12 09:16:06;;;;;;;5.78;4.35;;;3.70;99.90;;;;;;5050509;28;20297;-59
2023/12/12 09:18:32;;;;;;;9.10;3.80;;;3.80;99.90;;;;;;5050524;28;20202;-57
2023/12/12 09:20:59;;;;;;;6.60;3.67;;;3.80;99.90;;;;;;5050887;28;20684;-59
2023/12/12 09:23:27;;;;;;;4.45;3.72;;;3.90;99.90;;;;;;5050730;28;20301;-58
2023/12/12 09:25:54;;;;;;;10.90;4.63;;;3.90;99.90;;;;;;5050728;28;20268;-56
2023/12/12 09:28:21;;;;;;;7.55;4.32;;;4.00;99.90;;;;;;5050329;28;20684;-58
2023/12/12 09:30:50;;;;;;;14.82;4.38;;;4.10;99.90;;;;;;5050870;28;20203;-57
2023/12/12 09:33:16;;;;;;;7.75;4.72;;;4.20;99.90;;;;;;5050654;28;20206;-56
2023/12/12 09:35:43;;;;;;;8.98;5.30;;;4.30;99.90;;;;;;5050523;28;20297;-59
2023/12/12 09:38:10;;;;;;;7.05;6.35;;;4.40;99.90;;;;;;5049875;28;20248;-57
2023/12/12 09:40:37;;;;;;;6.22;4.55;;;4.50;99.90;;;;;;5050538;28;20226;-60
2023/12/12 09:43:04;;;;;;;5.28;4.88;;;4.60;99.90;;;;;;5050072;28;20203;-58
2023/12/12 09:45:32;;;;;;;6.60;5.40;;;4.70;99.90;;;;;;5050531;28;20293;-59
2023/12/12 09:48:01;;;;;;;13.27;5.43;;;4.80;99.90;;;;;;5050146;28;20234;-59
2023/12/12 09:50:29;;;;;;;4.85;4.22;;;4.90;99.90;;;;;;5047386;28;20712;-57
2023/12/12 09:53:00;;;;;;;9.50;5.55;;;5.00;99.90;;;;;;5049604;28;20264;-59
2023/12/12 09:55:28;;;;;;;9.30;5.82;;;5.00;99.90;;;;;;5049028;28;20215;-59
2023/12/12 09:57:55;;;;;;;14.40;7.05;;;5.20;99.90;;;;;;5050266;28;20760;-58
2023/12/12 10:00:22;;;;;;;12.57;5.85;;;5.30;99.90;;;;;;5052875;28;20225;-58
2023/12/12 10:02:50;;;;;;;9.55;6.65;;;5.40;99.90;;;;;;5053472;28;20218;-56
2023/12/12 10:05:19;;;;;;;20.83;9.80;;;5.40;99.90;;;;;;5052430;28;20206;-58
2023/12/12 10:07:47;;;;;;;14.15;6.80;;;5.60;99.90;;;;;;5042167;28;20268;-58
2023/12/12 10:10:14;;;;;;;11.35;8.30;;;5.70;99.90;;;;;;5042679;28;20294;-60
2023/12/12 10:12:42;;;;;;;7.20;6.53;;;5.80;99.90;;;;;;5048053;28;20293;-57
2023/12/12 10:15:23;;;;;;;11.82;7.35;;;5.90;99.90;;;;;;5052372;28;20214;-58
2023/12/12 10:17:54;;;;;;;18.73;16.77;;;6.10;99.90;;;;;;5052393;28;20720;-58
2023/12/12 10:20:26;;;;;;;20.02;17.92;;;6.20;99.90;;;;;;5046842;28;20245;-59
2023/12/12 10:22:54;;;;;;;18.88;16.85;;;6.30;99.90;;;;;;5041840;28;20207;-55
2023/12/12 10:25:22;;;;;;;15.43;12.23;;;6.40;99.90;;;;;;5047857;28;20892;-58
2023/12/12 10:27:52;;;;;;;11.70;8.00;;;6.50;99.90;;;;;;5043803;28;20233;-58
2023/12/12 10:30:20;;;;;;;9.75;6.18;;;6.70;99.90;;;;;;5046704;28;20210;-60
2023/12/12 10:32:46;;;;;;;9.95;7.40;;;6.80;99.90;;;;;;5052805;28;20210;-59
2023/12/12 10:35:13;;;;;;;18.00;9.75;;;6.90;99.90;;;;;;5042336;28;20207;-58
2023/12/12 10:37:41;;;;;;;14.00;6.78;;;7.10;99.90;;;;;;5049525;28;20242;-59
2023/12/12 10:40:12;;;;;;;8.65;6.60;;;7.20;99.90;;;;;;5052567;28;20222;-58
2023/12/12 10:42:40;;;;;;;13.30;8.30;;;7.30;99.90;;;;;;5046094;28;20296;-59
2023/12/12 10:45:11;;;;;;;9.27;8.27;;;7.50;99.90;;;;;;5052218;28;20206;-57
2023/12/12 10:47:43;;;;;;;15.15;7.30;;;7.60;99.90;;;;;;5051639;28;20226;-59
2023/12/12 10:50:14;;;;;;;20.48;13.27;;;7.70;99.90;;;;;;5052409;28;20210;-58
2023/12/12 10:52:44;;;;;;;10.10;7.50;;;7.70;99.90;;;;;;5044500;28;20202;-59
2023/12/12 10:55:12;;;;;;;9.88;6.43;;;7.80;99.90;;;;;;5049907;28;20206;-58
2023/12/12 10:57:42;;;;;;;7.70;6.38;;;7.90;99.90;;;;;;5051077;28;20219;-59
2023/12/12 11:00:12;;;;;;;9.43;6.70;;;8.00;99.90;;;;;;5050232;28;20226;-57
2023/12/12 11:02:41;;;;;;;8.70;7.80;;;8.10;99.90;;;;;;5052446;28;20640;-59
2023/12/12 11:05:10;;;;;;;10.30;6.30;;;8.10;99.90;;;;;;5052128;28;20248;-59
2023/12/12 11:07:37;;;;;;;7.28;6.57;;;8.30;99.90;;;;;;5050983;28;20245;-59
2023/12/12 11:10:10;;;;;;;8.20;7.32;;;8.30;99.90;;;;;;5047977;28;20260;-59
2023/12/12 11:12:39;;;;;;;8.73;6.25;;;8.50;99.90;;;;;;5051891;28;20208;-59
2023/12/12 11:15:09;;;;;;;9.50;7.50;;;8.50;99.90;;;;;;5051609;28;20697;-59
2023/12/12 11:17:37;;;;;;;7.43;6.33;;;8.60;99.90;;;;;;5050163;28;20559;-58
2023/12/12 11:20:14;;;;;;;13.63;6.77;;;8.70;99.90;;;;;;5048605;28;20576;-58
2023/12/12 11:22:43;;;;;;;8.50;7.28;;;8.70;99.90;;;;;;5050923;28;20552;-57
2023/12/12 11:25:16;;;;;;;12.17;8.83;;;8.80;99.90;;;;;;5052024;28;20289;-58
2023/12/12 11:27:47;;;;;;;6.57;6.07;;;8.80;99.90;;;;;;5050802;28;20476;-57
2023/12/12 11:30:14;;;;;;;15.70;7.67;;;8.90;99.90;;;;;;5048259;28;20958;-57
2023/12/12 11:32:43;;;;;;;17.40;11.47;;;8.90;99.90;;;;;;5048670;28;20455;-59
2023/12/12 11:35:29;;;;;;;8.70;7.40;;;9.00;99.90;;;;;;5051558;28;20448;-59
2023/12/12 11:37:56;;;;;;;10.60;8.03;;;9.00;99.90;;;;;;5050578;28;20472;-59
2023/12/12 11:40:25;;;;;;;8.50;6.57;;;9.10;99.90;;;;;;5048969;28;20895;-57
2023/12/12 11:42:53;;;;;;;9.37;8.50;;;9.10;99.90;;;;;;5050718;28;20465;-57
2023/12/12 11:45:40;;;;;;;10.37;9.37;;;9.20;99.90;;;;;;5050087;28;20455;-59
2023/12/12 11:48:07;;;;;;;9.53;6.67;;;9.20;99.90;;;;;;5043915;28;20551;-58
2023/12/12 11:50:35;;;;;;;10.83;6.07;;;9.20;99.90;;;;;;5048112;28;20913;-59
2023/12/12 11:53:03;;;;;;;9.60;6.13;;;9.20;99.90;;;;;;5050521;28;20455;-58
2023/12/12 11:55:34;;;;;;;7.70;6.13;;;9.20;99.90;;;;;;5048711;28;20502;-58
2023/12/12 11:58:02;;;;;;;9.15;6.60;;;9.30;99.90;;;;;;5049994;28;20639;-59
2023/12/12 12:00:33;;;;;;;6.03;5.17;;;9.30;99.90;;;;;;5048147;28;20310;-59
2023/12/12 12:03:01;;;;;;;10.30;6.33;;;9.30;99.90;;;;;;5050244;28;20543;-57
2023/12/12 12:05:28;;;;;;;13.30;5.47;;;9.30;99.90;;;;;;5048501;28;20448;-57
2023/12/12 12:07:56;;;;;;;7.03;5.33;;;9.40;99.90;;;;;;5049473;28;20512;-57
2023/12/12 12:10:23;;;;;;;7.43;4.40;;;9.40;99.90;;;;;;5045909;28;20437;-57
2023/12/12 12:12:56;;;;;;;8.33;4.73;;;9.50;99.90;;;;;;5050222;28;20460;-59
2023/12/12 12:15:23;;;;;;;9.60;5.43;;;9.50;99.90;;;;;;5050020;28;20457;-58
2023/12/12 12:17:51;;;;;;;16.67;6.40;;;9.50;99.90;;;;;;5047991;28;20552;-55
2023/12/12 12:20:18;;;;;;;8.80;4.57;;;9.60;99.90;;;;;;5045194;28;20597;-58
2023/12/12 12:22:44;;;;;;;9.10;4.60;;;9.60;99.90;;;;;;5050809;28;20531;-56
2023/12/12 12:25:12;;;;;;;5.63;3.90;;;9.60;99.90;;;;;;5048243;28;20536;-56
2023/12/12 12:27:49;;;;;;;7.93;5.03;;;9.60;99.90;;;;;;5049898;28;20457;-56
2023/12/12 12:30:18;;;;;;;6.00;3.90;;;9.60;99.90;;;;;;5047517;28;20440;-59
2023/12/12 12:32:59;;;;;;;4.63;3.60;;;9.60;99.90;;;;;;5048900;28;20455;-55
2023/12/12 12:35:26;;;;;;;5.70;4.00;;;9.60;99.90;;;;;;5047979;28;20887;-58
2023/12/12 12:37:54;;;;;;;4.93;4.17;;;9.60;99.90;;;;;;5050239;28;20507;-60
2023/12/12 12:40:33;;;;;;;12.50;3.90;;;9.60;99.90;;;;;;5045703;28;20906;-60
2023/12/12 12:43:00;;;;;;;4.20;2.87;;;9.70;99.90;;;;;;5048073;28;20448;-59
2023/12/12 12:45:29;;;;;;;10.77;4.77;;;9.60;99.90;;;;;;5049422;28;20449;-58
2023/12/12 12:47:55;;;;;;;4.00;3.70;;;9.60;99.90;;;;;;5050184;28;20488;-61
2023/12/12 12:50:22;;;;;;;9.90;3.60;;;9.60;99.90;;;;;;5045165;28;20442;-60
2023/12/12 12:52:49;;;;;;;6.10;4.63;;;9.60;99.90;;;;;;5050480;28;20985;-61
2023/12/12 12:55:16;;;;;;;6.00;3.43;;;9.60;99.90;;;;;;5047906;28;20445;-60
2023/12/12 12:57:44;;;;;;;5.53;4.03;;;9.70;99.90;;;;;;5044344;28;20468;-61